sensor_id;sensor_type;location;lat;lon;timestamp;P1;durP1;ratioP1;P2;durP2;ratioP2
19863;SDS011;10094;48.820;9.226;2023-11-22T00:04:00;5.53;;;2.65;;
19863;SDS011;10094;48.820;9.226;2023-11-22T00:10:43;3.35;;;3.05;;
19863;SDS011;10094;48.820;9.226;2023-11-22T00:17:26;5.10;;;3.90;;
19863;SDS011;10094;48.820;9.226;2023-11-22T00:24:08;4.53;;;3.92;;
19863;SDS011;10094;48.820;9.226;2023-11-22T00:30:50;9.00;;;4.35;;
19863;SDS011;10094;48.820;9.226;2023-11-22T00:37:33;4.93;;;4.32;;
19863;SDS011;10094;48.820;9.226;2023-11-22T00:44:16;5.38;;;4.82;;
19863;SDS011;10094;48.820;9.226;2023-11-22T00:50:59;5.80;;;5.00;;
19863;SDS011;10094;48.820;9.226;2023-11-22T00:57:42;5.63;;;4.60;;
19863;SDS011;10094;48.820;9.226;2023-11-22T01:04:25;7.60;;;5.15;;
19863;SDS011;10094;48.820;9.226;2023-11-22T01:11:07;7.78;;;5.57;;
19863;SDS011;10094;48.820;9.226;2023-11-22T01:17:49;7.38;;;5.03;;
19863;SDS011;10094;48.820;9.226;2023-11-22T01:24:31;5.65;;;4.47;;
19863;SDS011;10094;48.820;9.226;2023-11-22T01:31:14;4.80;;;3.90;;
19863;SDS011;10094;48.820;9.226;2023-11-22T01:37:57;5.68;;;4.25;;
19863;SDS011;10094;48.820;9.226;2023-11-22T01:44:39;4.22;;;3.83;;
19863;SDS011;10094;48.820;9.226;2023-11-22T01:51:23;4.10;;;3.70;;
19863;SDS011;10094;48.820;9.226;2023-11-22T01:58:06;5.00;;;3.78;;
19863;SDS011;10094;48.820;9.226;2023-11-22T02:04:49;4.32;;;3.55;;
19863;SDS011;10094;48.820;9.226;2023-11-22T02:11:31;4.63;;;3.92;;
19863;SDS011;10094;48.820;9.226;2023-11-22T02:18:13;4.70;;;3.85;;
19863;SDS011;10094;48.820;9.226;2023-11-22T02:24:57;5.15;;;4.30;;
19863;SDS011;10094;48.820;9.226;2023-11-22T02:31:40;4.85;;;3.50;;
19863;SDS011;10094;48.820;9.226;2023-11-22T02:38:24;4.95;;;4.03;;
19863;SDS011;10094;48.820;9.226;2023-11-22T02:45:07;4.15;;;3.55;;
19863;SDS011;10094;48.820;9.226;2023-11-22T02:51:51;4.00;;;3.60;;
19863;SDS011;10094;48.820;9.226;2023-11-22T02:58:34;4.07;;;3.10;;
19863;SDS011;10094;48.820;9.226;2023-11-22T03:05:16;5.13;;;3.65;;
19863;SDS011;10094;48.820;9.226;2023-11-22T03:11:59;5.00;;;4.20;;
19863;SDS011;10094;48.820;9.226;2023-11-22T03:18:41;3.20;;;2.90;;
19863;SDS011;10094;48.820;9.226;2023-11-22T03:25:24;4.05;;;3.58;;
19863;SDS011;10094;48.820;9.226;2023-11-22T03:32:06;4.65;;;3.40;;
19863;SDS011;10094;48.820;9.226;2023-11-22T03:38:50;4.72;;;3.55;;
19863;SDS011;10094;48.820;9.226;2023-11-22T03:45:32;5.20;;;4.15;;
19863;SDS011;10094;48.820;9.226;2023-11-22T03:52:16;4.43;;;3.85;;
19863;SDS011;10094;48.820;9.226;2023-11-22T03:58:58;5.78;;;3.92;;
19863;SDS011;10094;48.820;9.226;2023-11-22T04:05:41;4.55;;;3.95;;
19863;SDS011;10094;48.820;9.226;2023-11-22T04:12:23;6.88;;;4.78;;
19863;SDS011;10094;48.820;9.226;2023-11-22T04:19:06;5.82;;;4.30;;
19863;SDS011;10094;48.820;9.226;2023-11-22T04:25:49;5.50;;;4.75;;
19863;SDS011;10094;48.820;9.226;2023-11-22T04:32:32;6.50;;;5.07;;
19863;SDS011;10094;48.820;9.226;2023-11-22T04:39:14;5.72;;;4.30;;
19863;SDS011;10094;48.820;9.226;2023-11-22T04:45:57;5.78;;;4.68;;
19863;SDS011;10094;48.820;9.226;2023-11-22T04:52:39;5.82;;;4.60;;
19863;SDS011;10094;48.820;9.226;2023-11-22T04:59:22;5.25;;;3.90;;
19863;SDS011;10094;48.820;9.226;2023-11-22T05:06:04;5.40;;;4.45;;
19863;SDS011;10094;48.820;9.226;2023-11-22T05:12:47;4.38;;;3.97;;
19863;SDS011;10094;48.820;9.226;2023-11-22T05:19:29;6.10;;;4.53;;
19863;SDS011;10094;48.820;9.226;2023-11-22T05:26:13;4.40;;;4.00;;
19863;SDS011;10094;48.820;9.226;2023-11-22T05:32:56;4.88;;;3.90;;
19863;SDS011;10094;48.820;9.226;2023-11-22T05:39:39;4.75;;;3.80;;
19863;SDS011;10094;48.820;9.226;2023-11-22T05:46:22;6.95;;;4.30;;
19863;SDS011;10094;48.820;9.226;2023-11-22T05:53:07;4.13;;;3.72;;
19863;SDS011;10094;48.820;9.226;2023-11-22T05:59:50;7.43;;;4.30;;
19863;SDS011;10094;48.820;9.226;2023-11-22T06:06:33;5.15;;;3.88;;
19863;SDS011;10094;48.820;9.226;2023-11-22T06:13:15;5.55;;;3.67;;
19863;SDS011;10094;48.820;9.226;2023-11-22T06:19:58;4.97;;;3.85;;
19863;SDS011;10094;48.820;9.226;2023-11-22T06:26:42;5.13;;;3.78;;
19863;SDS011;10094;48.820;9.226;2023-11-22T06:33:26;4.15;;;3.45;;
19863;SDS011;10094;48.820;9.226;2023-11-22T06:40:08;3.63;;;3.25;;
19863;SDS011;10094;48.820;9.226;2023-11-22T06:46:54;3.85;;;3.05;;
19863;SDS011;10094;48.820;9.226;2023-11-22T06:53:36;4.30;;;3.60;;
19863;SDS011;10094;48.820;9.226;2023-11-22T07:00:19;4.10;;;3.30;;
19863;SDS011;10094;48.820;9.226;2023-11-22T07:07:02;5.45;;;3.05;;
19863;SDS011;10094;48.820;9.226;2023-11-22T07:13:45;4.45;;;3.30;;
19863;SDS011;10094;48.820;9.226;2023-11-22T07:20:29;4.35;;;2.97;;
19863;SDS011;10094;48.820;9.226;2023-11-22T07:27:12;4.55;;;2.70;;
19863;SDS011;10094;48.820;9.226;2023-11-22T07:33:55;3.20;;;2.90;;
19863;SDS011;10094;48.820;9.226;2023-11-22T07:40:37;5.70;;;3.60;;
19863;SDS011;10094;48.820;9.226;2023-11-22T07:47:20;3.15;;;2.72;;
19863;SDS011;10094;48.820;9.226;2023-11-22T07:54:03;4.05;;;3.13;;
19863;SDS011;10094;48.820;9.226;2023-11-22T08:00:45;6.07;;;3.50;;
19863;SDS011;10094;48.820;9.226;2023-11-22T08:07:29;4.10;;;3.13;;
19863;SDS011;10094;48.820;9.226;2023-11-22T08:14:12;4.05;;;3.22;;
19863;SDS011;10094;48.820;9.226;2023-11-22T08:20:56;3.95;;;3.00;;
19863;SDS011;10094;48.820;9.226;2023-11-22T08:27:39;4.43;;;3.00;;
19863;SDS011;10094;48.820;9.226;2023-11-22T08:34:24;6.13;;;3.38;;
19863;SDS011;10094;48.820;9.226;2023-11-22T08:41:07;5.10;;;4.00;;
19863;SDS011;10094;48.820;9.226;2023-11-22T08:47:53;5.65;;;3.88;;
19863;SDS011;10094;48.820;9.226;2023-11-22T08:54:36;5.18;;;3.60;;
19863;SDS011;10094;48.820;9.226;2023-11-22T09:01:19;4.90;;;3.30;;
19863;SDS011;10094;48.820;9.226;2023-11-22T09:08:01;6.20;;;3.65;;
19863;SDS011;10094;48.820;9.226;2023-11-22T09:14:57;9.98;;;4.95;;
19863;SDS011;10094;48.820;9.226;2023-11-22T09:21:40;6.00;;;4.30;;
19863;SDS011;10094;48.820;9.226;2023-11-22T09:28:22;8.02;;;4.43;;
19863;SDS011;10094;48.820;9.226;2023-11-22T09:35:05;6.28;;;4.35;;
19863;SDS011;10094;48.820;9.226;2023-11-22T09:41:51;5.72;;;4.07;;
19863;SDS011;10094;48.820;9.226;2023-11-22T09:48:35;5.18;;;4.05;;
19863;SDS011;10094;48.820;9.226;2023-11-22T09:55:19;6.97;;;4.20;;
19863;SDS011;10094;48.820;9.226;2023-11-22T10:02:04;5.07;;;4.38;;
19863;SDS011;10094;48.820;9.226;2023-11-22T10:08:48;7.25;;;4.50;;
19863;SDS011;10094;48.820;9.226;2023-11-22T10:15:31;10.10;;;4.95;;
19863;SDS011;10094;48.820;9.226;2023-11-22T10:22:14;6.10;;;4.35;;
19863;SDS011;10094;48.820;9.226;2023-11-22T10:28:59;6.05;;;4.57;;
19863;SDS011;10094;48.820;9.226;2023-11-22T10:35:43;5.75;;;4.72;;
19863;SDS011;10094;48.820;9.226;2023-11-22T10:42:26;8.13;;;5.10;;
19863;SDS011;10094;48.820;9.226;2023-11-22T10:49:09;5.85;;;5.00;;
19863;SDS011;10094;48.820;9.226;2023-11-22T10:55:57;5.40;;;4.47;;
19863;SDS011;10094;48.820;9.226;2023-11-22T11:02:51;8.75;;;5.20;;
19863;SDS011;10094;48.820;9.226;2023-11-22T11:09:51;7.70;;;5.38;;
19863;SDS011;10094;48.820;9.226;2023-11-22T11:16:37;6.68;;;4.63;;
19863;SDS011;10094;48.820;9.226;2023-11-22T11:23:24;6.25;;;4.80;;
19863;SDS011;10094;48.820;9.226;2023-11-22T11:37:14;7.05;;;5.03;;
19863;SDS011;10094;48.820;9.226;2023-11-22T11:43:57;5.47;;;4.65;;
19863;SDS011;10094;48.820;9.226;2023-11-22T11:50:39;7.47;;;5.90;;
19863;SDS011;10094;48.820;9.226;2023-11-22T11:57:23;6.22;;;5.28;;
19863;SDS011;10094;48.820;9.226;2023-11-22T12:04:06;5.78;;;4.70;;
19863;SDS011;10094;48.820;9.226;2023-11-22T12:10:48;7.65;;;5.47;;
19863;SDS011;10094;48.820;9.226;2023-11-22T12:17:31;7.15;;;5.05;;
19863;SDS011;10094;48.820;9.226;2023-11-22T12:24:14;6.22;;;4.95;;
19863;SDS011;10094;48.820;9.226;2023-11-22T12:31:08;6.70;;;5.15;;
19863;SDS011;10094;48.820;9.226;2023-11-22T12:37:52;5.25;;;4.60;;
19863;SDS011;10094;48.820;9.226;2023-11-22T12:44:48;7.13;;;4.63;;
19863;SDS011;10094;48.820;9.226;2023-11-22T12:51:34;6.50;;;4.53;;
19863;SDS011;10094;48.820;9.226;2023-11-22T12:58:17;7.18;;;5.55;;
19863;SDS011;10094;48.820;9.226;2023-11-22T13:05:03;9.48;;;5.80;;
19863;SDS011;10094;48.820;9.226;2023-11-22T13:11:47;6.25;;;5.32;;
19863;SDS011;10094;48.820;9.226;2023-11-22T13:18:29;5.90;;;4.78;;
19863;SDS011;10094;48.820;9.226;2023-11-22T13:25:12;6.03;;;4.78;;
19863;SDS011;10094;48.820;9.226;2023-11-22T13:31:58;10.00;;;5.95;;
19863;SDS011;10094;48.820;9.226;2023-11-22T13:38:41;7.15;;;5.53;;
19863;SDS011;10094;48.820;9.226;2023-11-22T13:45:24;6.40;;;5.22;;
19863;SDS011;10094;48.820;9.226;2023-11-22T13:52:06;7.68;;;4.88;;
19863;SDS011;10094;48.820;9.226;2023-11-22T13:58:49;7.78;;;5.38;;
19863;SDS011;10094;48.820;9.226;2023-11-22T14:05:32;6.75;;;5.18;;
19863;SDS011;10094;48.820;9.226;2023-11-22T14:12:16;5.93;;;4.75;;
19863;SDS011;10094;48.820;9.226;2023-11-22T14:19:00;7.00;;;4.82;;
19863;SDS011;10094;48.820;9.226;2023-11-22T14:25:43;8.10;;;6.20;;
19863;SDS011;10094;48.820;9.226;2023-11-22T14:32:25;6.72;;;4.95;;
19863;SDS011;10094;48.820;9.226;2023-11-22T14:39:08;6.75;;;4.88;;
19863;SDS011;10094;48.820;9.226;2023-11-22T14:45:54;7.60;;;5.13;;
19863;SDS011;10094;48.820;9.226;2023-11-22T14:52:37;7.82;;;5.25;;
19863;SDS011;10094;48.820;9.226;2023-11-22T14:59:20;8.13;;;5.10;;
19863;SDS011;10094;48.820;9.226;2023-11-22T15:06:03;4.82;;;4.28;;
19863;SDS011;10094;48.820;9.226;2023-11-22T15:12:47;7.50;;;5.22;;
19863;SDS011;10094;48.820;9.226;2023-11-22T15:19:30;5.53;;;4.22;;
19863;SDS011;10094;48.820;9.226;2023-11-22T15:26:14;7.03;;;4.75;;
19863;SDS011;10094;48.820;9.226;2023-11-22T15:32:56;6.45;;;4.88;;
19863;SDS011;10094;48.820;9.226;2023-11-22T15:39:39;10.10;;;5.68;;
19863;SDS011;10094;48.820;9.226;2023-11-22T15:46:22;6.20;;;5.50;;
19863;SDS011;10094;48.820;9.226;2023-11-22T15:53:08;7.38;;;4.80;;
19863;SDS011;10094;48.820;9.226;2023-11-22T15:59:55;7.00;;;5.78;;
19863;SDS011;10094;48.820;9.226;2023-11-22T16:06:38;7.15;;;5.05;;
19863;SDS011;10094;48.820;9.226;2023-11-22T16:13:20;10.95;;;7.15;;
19863;SDS011;10094;48.820;9.226;2023-11-22T16:20:04;25.58;;;17.85;;
19863;SDS011;10094;48.820;9.226;2023-11-22T16:26:52;45.42;;;32.35;;
19863;SDS011;10094;48.820;9.226;2023-11-22T16:33:35;8.00;;;5.95;;
19863;SDS011;10094;48.820;9.226;2023-11-22T16:40:18;9.93;;;5.57;;
19863;SDS011;10094;48.820;9.226;2023-11-22T16:47:00;7.88;;;6.13;;
19863;SDS011;10094;48.820;9.226;2023-11-22T16:53:45;8.50;;;6.05;;
19863;SDS011;10094;48.820;9.226;2023-11-22T17:00:28;8.10;;;5.80;;
19863;SDS011;10094;48.820;9.226;2023-11-22T17:07:12;6.63;;;5.88;;
19863;SDS011;10094;48.820;9.226;2023-11-22T17:13:55;8.18;;;5.25;;
19863;SDS011;10094;48.820;9.226;2023-11-22T17:20:38;7.72;;;6.20;;
19863;SDS011;10094;48.820;9.226;2023-11-22T17:27:20;8.10;;;6.93;;
19863;SDS011;10094;48.820;9.226;2023-11-22T17:34:03;8.35;;;6.30;;
19863;SDS011;10094;48.820;9.226;2023-11-22T17:40:46;10.13;;;7.18;;
19863;SDS011;10094;48.820;9.226;2023-11-22T17:47:29;6.38;;;5.28;;
19863;SDS011;10094;48.820;9.226;2023-11-22T17:54:14;9.98;;;6.68;;
19863;SDS011;10094;48.820;9.226;2023-11-22T18:00:57;7.82;;;5.78;;
19863;SDS011;10094;48.820;9.226;2023-11-22T18:07:39;7.78;;;6.30;;
19863;SDS011;10094;48.820;9.226;2023-11-22T18:14:23;6.45;;;5.72;;
19863;SDS011;10094;48.820;9.226;2023-11-22T18:21:07;5.75;;;4.35;;
19863;SDS011;10094;48.820;9.226;2023-11-22T18:27:50;5.95;;;5.15;;
19863;SDS011;10094;48.820;9.226;2023-11-22T18:34:33;6.22;;;5.00;;
19863;SDS011;10094;48.820;9.226;2023-11-22T18:41:16;7.00;;;5.82;;
19863;SDS011;10094;48.820;9.226;2023-11-22T18:48:00;8.10;;;5.55;;
19863;SDS011;10094;48.820;9.226;2023-11-22T18:54:43;8.18;;;5.03;;
19863;SDS011;10094;48.820;9.226;2023-11-22T19:01:26;7.43;;;5.82;;
19863;SDS011;10094;48.820;9.226;2023-11-22T19:08:09;7.40;;;6.38;;
19863;SDS011;10094;48.820;9.226;2023-11-22T19:14:52;6.70;;;5.50;;
19863;SDS011;10094;48.820;9.226;2023-11-22T19:21:36;10.57;;;5.75;;
19863;SDS011;10094;48.820;9.226;2023-11-22T19:28:20;7.57;;;5.68;;
19863;SDS011;10094;48.820;9.226;2023-11-22T19:35:03;7.13;;;6.00;;
19863;SDS011;10094;48.820;9.226;2023-11-22T19:41:47;12.68;;;6.28;;
19863;SDS011;10094;48.820;9.226;2023-11-22T19:48:31;7.32;;;5.82;;
19863;SDS011;10094;48.820;9.226;2023-11-22T19:55:13;6.90;;;6.20;;
19863;SDS011;10094;48.820;9.226;2023-11-22T20:01:56;7.75;;;5.88;;
19863;SDS011;10094;48.820;9.226;2023-11-22T20:08:44;8.48;;;6.85;;
19863;SDS011;10094;48.820;9.226;2023-11-22T20:15:27;8.85;;;6.13;;
19863;SDS011;10094;48.820;9.226;2023-11-22T20:22:09;10.50;;;7.53;;
19863;SDS011;10094;48.820;9.226;2023-11-22T20:28:52;7.93;;;7.13;;
19863;SDS011;10094;48.820;9.226;2023-11-22T20:35:34;8.52;;;7.30;;
19863;SDS011;10094;48.820;9.226;2023-11-22T20:42:17;9.32;;;7.55;;
19863;SDS011;10094;48.820;9.226;2023-11-22T20:49:00;10.82;;;7.43;;
19863;SDS011;10094;48.820;9.226;2023-11-22T20:55:43;8.77;;;6.72;;
19863;SDS011;10094;48.820;9.226;2023-11-22T21:02:25;9.43;;;7.60;;
19863;SDS011;10094;48.820;9.226;2023-11-22T21:09:08;8.13;;;7.07;;
19863;SDS011;10094;48.820;9.226;2023-11-22T21:15:52;11.05;;;7.43;;
19863;SDS011;10094;48.820;9.226;2023-11-22T21:22:35;13.35;;;8.23;;
19863;SDS011;10094;48.820;9.226;2023-11-22T21:29:17;12.32;;;9.05;;
19863;SDS011;10094;48.820;9.226;2023-11-22T21:36:00;11.07;;;9.15;;
19863;SDS011;10094;48.820;9.226;2023-11-22T21:42:42;14.32;;;9.35;;
19863;SDS011;10094;48.820;9.226;2023-11-22T21:49:25;11.45;;;8.75;;
19863;SDS011;10094;48.820;9.226;2023-11-22T21:56:07;12.00;;;8.52;;
19863;SDS011;10094;48.820;9.226;2023-11-22T22:02:50;12.00;;;9.10;;
19863;SDS011;10094;48.820;9.226;2023-11-22T22:09:33;14.60;;;10.07;;
19863;SDS011;10094;48.820;9.226;2023-11-22T22:16:21;11.85;;;9.57;;
19863;SDS011;10094;48.820;9.226;2023-11-22T22:23:03;14.95;;;9.82;;
19863;SDS011;10094;48.820;9.226;2023-11-22T22:29:45;13.65;;;10.38;;
19863;SDS011;10094;48.820;9.226;2023-11-22T22:36:28;51.67;;;29.48;;
19863;SDS011;10094;48.820;9.226;2023-11-22T22:43:10;15.77;;;10.70;;
19863;SDS011;10094;48.820;9.226;2023-11-22T22:49:53;12.82;;;9.88;;
19863;SDS011;10094;48.820;9.226;2023-11-22T22:56:36;13.10;;;9.68;;
19863;SDS011;10094;48.820;9.226;2023-11-22T23:03:19;17.73;;;11.95;;
19863;SDS011;10094;48.820;9.226;2023-11-22T23:10:03;22.38;;;12.63;;
19863;SDS011;10094;48.820;9.226;2023-11-22T23:16:46;17.92;;;13.00;;
19863;SDS011;10094;48.820;9.226;2023-11-22T23:23:28;25.48;;;15.73;;
19863;SDS011;10094;48.820;9.226;2023-11-22T23:30:11;12.32;;;9.88;;
19863;SDS011;10094;48.820;9.226;2023-11-22T23:36:55;14.48;;;11.25;;
19863;SDS011;10094;48.820;9.226;2023-11-22T23:43:37;14.70;;;10.82;;
19863;SDS011;10094;48.820;9.226;2023-11-22T23:50:20;13.93;;;10.88;;
19863;SDS011;10094;48.820;9.226;2023-11-22T23:57:03;34.15;;;23.88;;
